createdAt,value
2023-01-11T00:02:14.653Z,73.35
2023-01-11T00:04:41.486Z,72.86
2023-01-11T00:07:08.179Z,72.73
2023-01-11T00:09:34.833Z,72.41
2023-01-11T00:12:01.485Z,71.78
2023-01-11T00:14:28.278Z,71.84
2023-01-11T00:16:55.103Z,70.94
2023-01-11T00:19:21.857Z,70.58
2023-01-11T00:21:49.487Z,70.53
2023-01-11T00:24:16.257Z,69.56
2023-01-11T00:26:42.882Z,69.79
2023-01-11T00:29:09.491Z,70.39
2023-01-11T00:31:36.170Z,70.38
2023-01-11T00:34:02.952Z,70.24
2023-01-11T00:36:29.972Z,70.52
2023-01-11T00:38:56.643Z,69.87
2023-01-11T00:41:42.157Z,69.94
2023-01-11T00:44:28.859Z,70.12
2023-01-11T00:47:15.764Z,70.33
2023-01-11T00:49:43.202Z,70.72
2023-01-11T00:52:10.226Z,70.50
2023-01-11T00:54:41.569Z,71.17
2023-01-11T00:57:08.758Z,71.61
2023-01-11T00:59:37.017Z,73.01
2023-01-11T01:02:04.266Z,72.30
2023-01-11T01:04:31.851Z,72.63
2023-01-11T01:06:58.839Z,72.17
2023-01-11T01:09:25.691Z,72.52
2023-01-11T01:11:52.494Z,73.09
2023-01-11T01:14:29.320Z,72.77
2023-01-11T01:17:02.199Z,72.37
2023-01-11T01:19:30.520Z,72.61
2023-01-11T01:21:58.796Z,72.55
2023-01-11T01:24:28.817Z,73.02
2023-01-11T01:26:56.919Z,73.71
2023-01-11T01:29:24.011Z,72.99
2023-01-11T01:31:51.028Z,73.11
2023-01-11T01:34:18.048Z,73.33
2023-01-11T01:36:44.927Z,72.33
2023-01-11T01:39:12.857Z,72.82
2023-01-11T01:41:39.796Z,72.12
2023-01-11T01:44:44.904Z,72.32
2023-01-11T01:47:12.392Z,72.82
2023-01-11T01:49:40.089Z,73.65
2023-01-11T01:52:07.850Z,74.54
2023-01-11T01:54:39.350Z,75.04
2023-01-11T01:57:12.552Z,75.70
2023-01-11T01:59:41.535Z,76.12
2023-01-11T02:02:08.489Z,76.60
2023-01-11T02:04:44.006Z,77.48
2023-01-11T02:07:17.388Z,78.42
2023-01-11T02:10:15.100Z,79.47
2023-01-11T02:12:52.649Z,81.22
2023-01-11T02:15:22.179Z,81.68
2023-01-11T02:17:58.323Z,81.60
2023-01-11T02:21:00.091Z,82.29
2023-01-11T02:24:00.432Z,82.27
2023-01-11T02:27:06.072Z,82.59
2023-01-11T02:29:49.353Z,82.71
2023-01-11T02:32:40.173Z,83.14
2023-01-11T02:35:27.135Z,83.48
2023-01-11T02:38:24.678Z,85.09
2023-01-11T02:41:01.110Z,85.27
2023-01-11T02:44:05.105Z,84.87
2023-01-11T02:46:49.450Z,84.41
2023-01-11T02:49:33.409Z,85.40
2023-01-11T02:52:12.938Z,86.37
2023-01-11T02:54:43.767Z,86.55
2023-01-11T02:57:12.104Z,86.93
2023-01-11T02:59:40.430Z,87.12
2023-01-11T03:02:07.258Z,87.85
2023-01-11T03:04:36.243Z,87.83
2023-01-11T03:07:27.696Z,88.00
2023-01-11T03:10:06.205Z,88.19
2023-01-11T03:12:51.908Z,87.86
2023-01-11T03:15:33.942Z,88.46
2023-01-11T03:18:23.156Z,87.73
2023-01-11T03:21:10.303Z,88.24
2023-01-11T03:24:10.240Z,87.35
2023-01-11T03:26:56.580Z,87.96
2023-01-11T03:29:35.664Z,88.75
2023-01-11T03:32:29.822Z,88.20
2023-01-11T03:35:16.879Z,88.70
2023-01-11T03:37:54.772Z,88.54
2023-01-11T03:40:30.653Z,88.93
2023-01-11T03:43:13.922Z,88.99
2023-01-11T03:45:50.205Z,89.39
2023-01-11T03:48:22.392Z,89.10
2023-01-11T03:50:52.683Z,88.87
2023-01-11T03:53:22.646Z,90.06
2023-01-11T03:55:54.570Z,89.32
2023-01-11T03:58:21.588Z,89.89
2023-01-11T04:00:49.615Z,89.51
2023-01-11T04:03:16.368Z,89.93
2023-01-11T04:05:46.809Z,89.15
2023-01-11T04:08:13.721Z,88.97
2023-01-11T04:10:40.511Z,89.49
2023-01-11T04:13:07.130Z,89.85
2023-01-11T04:15:34.767Z,89.92
2023-01-11T04:18:05.274Z,90.46
2023-01-11T04:20:34.120Z,90.38
2023-01-11T04:23:00.885Z,88.85
2023-01-11T04:25:27.791Z,89.11
2023-01-11T04:27:54.449Z,88.86
2023-01-11T04:30:21.474Z,88.62
2023-01-11T04:32:48.442Z,89.52
2023-01-11T04:35:15.368Z,89.34
2023-01-11T04:37:42.078Z,88.32
2023-01-11T04:40:09.680Z,89.06
2023-01-11T04:42:36.590Z,89.34
2023-01-11T04:45:06.021Z,88.45
2023-01-11T04:47:33.826Z,88.65
2023-01-11T04:50:00.582Z,88.64
2023-01-11T04:52:27.218Z,89.20
2023-01-11T04:54:54.029Z,90.23
2023-01-11T04:57:21.321Z,89.07
2023-01-11T04:59:49.013Z,88.46
2023-01-11T05:02:16.065Z,90.36
2023-01-11T05:04:43.127Z,89.82
2023-01-11T05:07:10.694Z,90.67
2023-01-11T05:09:37.413Z,91.27
2023-01-11T05:12:04.267Z,90.55
2023-01-11T05:14:30.976Z,91.95
2023-01-11T05:16:57.634Z,92.37
2023-01-11T05:19:24.430Z,92.44
2023-01-11T05:21:51.032Z,93.90
2023-01-11T05:24:17.786Z,94.93
2023-01-11T05:26:46.022Z,96.44
2023-01-11T05:29:16.211Z,96.75
2023-01-11T05:31:43.195Z,97.30
2023-01-11T05:34:13.232Z,98.79
2023-01-11T05:36:40.493Z,99.31
2023-01-11T05:39:07.247Z,100.00
2023-01-11T05:41:34.716Z,99.29
2023-01-11T05:44:19.970Z,98.97
2023-01-11T05:46:46.692Z,99.66
2023-01-11T05:49:13.997Z,100.00
2023-01-11T05:51:42.145Z,100.00
2023-01-11T05:54:14.134Z,100.00
2023-01-11T05:56:42.370Z,99.54
2023-01-11T05:59:09.196Z,99.91
2023-01-11T06:01:35.937Z,100.00
2023-01-11T06:04:02.716Z,100.00
2023-01-11T06:06:29.640Z,99.75
2023-01-11T06:08:56.424Z,99.04
2023-01-11T06:11:23.109Z,99.65
2023-01-11T06:13:49.745Z,99.85
2023-01-11T06:16:19.329Z,99.24
2023-01-11T06:18:51.288Z,99.58
2023-01-11T06:21:18.531Z,99.71
2023-01-11T06:23:47.607Z,100.00
2023-01-11T06:26:16.546Z,99.74
2023-01-11T06:28:44.686Z,100.00
2023-01-11T06:31:11.958Z,100.00
2023-01-11T06:33:38.854Z,99.37
2023-01-11T06:36:08.082Z,99.33
2023-01-11T06:38:35.765Z,100.00
2023-01-11T06:41:04.907Z,99.48
2023-01-11T06:43:32.628Z,99.50
2023-01-11T06:46:00.892Z,98.68
2023-01-11T06:48:28.206Z,99.71
2023-01-11T06:50:57.032Z,99.77
2023-01-11T06:53:27.431Z,99.24
2023-01-11T06:55:56.758Z,98.74
2023-01-11T06:58:24.979Z,98.88
2023-01-11T07:00:53.189Z,98.12
2023-01-11T07:03:24.197Z,97.73
2023-01-11T07:05:56.898Z,97.75
2023-01-11T07:08:25.848Z,97.61
2023-01-11T07:10:53.251Z,97.78
2023-01-11T07:13:20.075Z,97.16
2023-01-11T07:15:49.891Z,97.93
2023-01-11T07:18:18.735Z,97.13
2023-01-11T07:20:45.501Z,97.54
2023-01-11T07:23:12.196Z,97.65
2023-01-11T07:25:39.335Z,97.29
2023-01-11T07:28:08.051Z,97.78
2023-01-11T07:30:55.371Z,97.28
2023-01-11T07:33:24.369Z,96.04
2023-01-11T07:35:51.072Z,96.72
2023-01-11T07:38:17.998Z,97.07
2023-01-11T07:40:44.703Z,97.43
2023-01-11T07:43:14.755Z,97.76
2023-01-11T07:45:49.101Z,98.43
2023-01-11T07:48:20.993Z,98.87
2023-01-11T07:50:47.906Z,99.11
2023-01-11T07:53:14.780Z,98.72
2023-01-11T07:55:41.598Z,98.51
2023-01-11T07:58:12.900Z,99.10
2023-01-11T08:00:43.620Z,98.71
2023-01-11T08:03:10.843Z,98.88
2023-01-11T08:05:38.021Z,99.88
2023-01-11T08:08:05.555Z,99.85
2023-01-11T08:10:33.004Z,99.84
2023-01-11T08:13:18.464Z,99.65
2023-01-11T08:15:45.189Z,99.18
2023-01-11T08:18:12.773Z,99.51
2023-01-11T08:20:40.284Z,100.00
2023-01-11T08:23:09.731Z,100.00
2023-01-11T08:25:36.877Z,100.00
2023-01-11T08:28:05.925Z,100.00
2023-01-11T08:30:33.140Z,100.00
2023-01-11T08:33:04.303Z,100.00
2023-01-11T08:35:32.387Z,100.00
2023-01-11T08:37:59.000Z,100.00
2023-01-11T08:40:25.791Z,100.00
2023-01-11T08:42:59.235Z,100.00
2023-01-11T08:45:26.187Z,100.00
2023-01-11T08:47:53.184Z,100.00
2023-01-11T08:50:21.274Z,100.00
2023-01-11T08:52:51.564Z,100.00
2023-01-11T08:55:21.189Z,100.00
2023-01-11T08:57:47.846Z,100.00
2023-01-11T09:00:15.135Z,100.00
2023-01-11T09:02:42.176Z,100.00
2023-01-11T09:05:09.701Z,100.00
2023-01-11T09:07:37.817Z,100.00
2023-01-11T09:10:05.156Z,100.00
2023-01-11T09:12:32.655Z,100.00
2023-01-11T09:14:59.852Z,100.00
2023-01-11T09:17:26.983Z,100.00
2023-01-11T09:19:53.759Z,100.00
2023-01-11T09:22:20.532Z,100.00
2023-01-11T09:24:47.146Z,100.00
2023-01-11T09:27:14.163Z,100.00
2023-01-11T09:29:41.190Z,100.00
2023-01-11T09:32:07.991Z,100.00
2023-01-11T09:34:35.075Z,100.00
2023-01-11T09:37:03.905Z,100.00
2023-01-11T09:39:30.964Z,100.00
2023-01-11T09:42:15.893Z,100.00
2023-01-11T09:44:56.562Z,100.00
2023-01-11T09:47:34.043Z,100.00
2023-01-11T09:50:06.812Z,100.00
2023-01-11T09:52:39.789Z,100.00
2023-01-11T09:55:14.412Z,100.00
2023-01-11T09:57:54.116Z,100.00
2023-01-11T10:00:37.309Z,100.00
2023-01-11T10:03:22.063Z,100.00
2023-01-11T10:06:00.362Z,100.00
2023-01-11T10:18:31.764Z,100.00
2023-01-11T10:19:18.541Z,100.00
2023-01-11T10:21:55.784Z,100.00
2023-01-11T10:24:31.233Z,100.00
2023-01-11T10:27:03.875Z,100.00
2023-01-11T10:29:48.475Z,100.00
2023-01-11T10:32:34.377Z,100.00
2023-01-11T10:35:20.438Z,100.00
2023-01-11T10:38:04.043Z,100.00
2023-01-11T10:41:01.712Z,100.00
2023-01-11T10:43:31.630Z,100.00
2023-01-11T10:48:46.056Z,100.00
2023-01-11T10:51:34.505Z,100.00
2023-01-11T10:54:14.198Z,100.00
2023-01-11T10:57:18.010Z,100.00
2023-01-11T11:00:13.500Z,100.00
2023-01-11T11:03:04.313Z,100.00
2023-01-11T11:05:50.851Z,100.00
2023-01-11T11:08:27.604Z,100.00
2023-01-11T11:11:23.144Z,100.00
2023-01-11T11:14:23.176Z,100.00
2023-01-11T11:17:16.423Z,100.00
2023-01-11T11:19:43.273Z,100.00
2023-01-11T11:22:12.405Z,100.00
2023-01-11T11:24:43.959Z,100.00
2023-01-11T11:27:50.936Z,100.00
2023-01-11T11:30:41.713Z,100.00
2023-01-11T11:33:16.341Z,100.00
2023-01-11T11:35:46.292Z,100.00
2023-01-11T11:38:22.746Z,100.00
2023-01-11T11:41:04.273Z,100.00
2023-01-11T11:43:33.106Z,100.00
2023-01-11T11:46:05.030Z,100.00
2023-01-11T11:48:34.126Z,100.00
2023-01-11T11:51:03.595Z,100.00
2023-01-11T11:53:33.617Z,100.00
2023-01-11T11:56:06.527Z,100.00
2023-01-11T11:58:33.673Z,100.00
2023-01-11T12:01:00.493Z,100.00
2023-01-11T12:03:32.197Z,100.00
2023-01-11T12:06:04.366Z,100.00
2023-01-11T12:08:34.515Z,100.00
2023-01-11T12:11:04.011Z,100.00
2023-01-11T12:13:33.956Z,100.00
2023-01-11T12:16:04.151Z,100.00
2023-01-11T12:18:42.861Z,100.00
2023-01-11T12:21:09.606Z,100.00
2023-01-11T12:23:36.281Z,100.00
2023-01-11T12:26:16.575Z,100.00
2023-01-11T12:29:06.764Z,100.00
2023-01-11T12:32:03.198Z,100.00
2023-01-11T12:34:59.019Z,100.00
2023-01-11T12:37:52.200Z,100.00
2023-01-11T12:40:25.433Z,100.00
2023-01-11T12:43:26.393Z,100.00
2023-01-11T12:45:59.469Z,100.00
2023-01-11T12:48:40.360Z,100.00
2023-01-11T12:51:37.884Z,100.00
2023-01-11T12:54:04.453Z,100.00
2023-01-11T12:57:11.574Z,100.00
2023-01-11T13:00:08.514Z,100.00
2023-01-11T13:02:46.656Z,100.00
2023-01-11T13:05:26.684Z,100.00
2023-01-11T13:08:07.187Z,100.00
2023-01-11T13:11:11.935Z,100.00
2023-01-11T13:13:38.523Z,100.00
2023-01-11T13:16:17.609Z,100.00
2023-01-11T13:18:50.436Z,100.00
2023-01-11T13:21:35.455Z,99.62
2023-01-11T13:24:09.978Z,98.19
2023-01-11T13:26:41.017Z,98.38
2023-01-11T13:29:15.736Z,98.04
2023-01-11T13:31:45.990Z,96.96
2023-01-11T13:34:34.743Z,95.81
2023-01-11T13:37:36.688Z,96.21
2023-01-11T13:40:09.892Z,95.27
2023-01-11T13:42:48.492Z,93.52
2023-01-11T13:45:35.151Z,93.54
2023-01-11T13:48:12.019Z,93.27
2023-01-11T13:50:44.339Z,93.00
2023-01-11T13:53:11.092Z,92.17
2023-01-11T13:56:06.275Z,93.10
2023-01-11T13:58:48.887Z,92.48
2023-01-11T14:01:20.287Z,91.72
2023-01-11T14:03:53.215Z,92.14
2023-01-11T14:06:45.252Z,91.34
2023-01-11T14:09:43.327Z,91.17
2023-01-11T14:12:30.572Z,91.85
2023-01-11T14:15:31.544Z,90.72
2023-01-11T14:18:10.026Z,90.53
2023-01-11T14:20:42.745Z,90.72
2023-01-11T14:23:13.118Z,90.52
2023-01-11T14:26:02.248Z,89.94
2023-01-11T14:28:53.646Z,90.79
2023-01-11T14:31:37.848Z,89.32
2023-01-11T14:34:26.557Z,88.53
2023-01-11T14:37:17.436Z,88.80
2023-01-11T14:40:05.805Z,87.98
2023-01-11T14:42:53.765Z,88.38
2023-01-11T14:45:36.945Z,87.32
2023-01-11T14:48:45.451Z,87.41
2023-01-11T14:51:32.500Z,86.50
2023-01-11T14:54:16.758Z,87.06
2023-01-11T14:56:43.392Z,85.35
2023-01-11T14:59:29.021Z,85.46
2023-01-11T15:02:04.704Z,84.77
2023-01-11T15:04:37.008Z,83.45
2023-01-11T15:07:24.135Z,82.89
2023-01-11T15:09:53.609Z,83.11
2023-01-11T15:12:37.115Z,82.05
2023-01-11T15:15:07.152Z,79.36
2023-01-11T15:17:53.405Z,79.23
2023-01-11T15:20:21.909Z,79.12
2023-01-11T15:23:16.742Z,77.24
2023-01-11T15:25:49.272Z,77.31
2023-01-11T15:28:54.323Z,76.00
2023-01-11T15:31:44.037Z,75.86
2023-01-11T15:34:24.814Z,75.91
2023-01-11T15:36:57.384Z,75.98
2023-01-11T15:39:46.466Z,76.92
2023-01-11T15:42:16.062Z,76.85
2023-01-11T15:44:48.822Z,77.27
2023-01-11T15:47:52.775Z,76.38
2023-01-11T15:50:41.391Z,75.94
2023-01-11T15:53:28.606Z,75.73
2023-01-11T15:56:34.968Z,76.28
2023-01-11T15:59:37.325Z,75.91
2023-01-11T16:02:27.634Z,74.63
2023-01-11T16:05:11.310Z,74.50
2023-01-11T16:07:43.349Z,74.02
2023-01-11T16:10:30.113Z,73.88
2023-01-11T16:13:10.312Z,73.84
2023-01-11T16:15:43.120Z,73.64
2023-01-11T16:18:25.008Z,72.95
2023-01-11T16:21:02.702Z,72.27
2023-01-11T16:23:33.943Z,72.87
2023-01-11T16:26:01.478Z,73.47
2023-01-11T16:28:28.548Z,72.89
2023-01-11T16:31:04.759Z,73.28
2023-01-11T16:33:34.473Z,73.59
2023-01-11T16:36:10.486Z,73.63
2023-01-11T16:38:55.803Z,73.56
2023-01-11T16:41:25.735Z,73.96
2023-01-11T16:44:02.225Z,74.06
2023-01-11T16:46:56.458Z,74.04
2023-01-11T16:49:23.915Z,73.08
2023-01-11T16:51:50.725Z,73.81
2023-01-11T16:54:25.187Z,74.16
2023-01-11T16:56:52.516Z,74.12
2023-01-11T16:59:26.375Z,74.52
2023-01-11T17:01:59.318Z,75.23
2023-01-11T17:04:38.032Z,75.19
2023-01-11T17:07:26.385Z,75.44
2023-01-11T17:09:53.466Z,76.24
2023-01-11T17:12:26.041Z,76.64
2023-01-11T17:15:07.597Z,76.98
2023-01-11T17:17:36.856Z,78.11
2023-01-11T17:20:10.602Z,78.50
2023-01-11T17:22:37.782Z,78.91
2023-01-11T17:25:15.856Z,79.47
2023-01-11T17:27:50.872Z,79.78
2023-01-11T17:30:21.533Z,79.95
2023-01-11T17:32:53.756Z,80.64
2023-01-11T17:35:23.347Z,79.96
2023-01-11T17:37:52.290Z,79.77
2023-01-11T17:40:28.223Z,80.91
2023-01-11T17:43:18.937Z,79.98
2023-01-11T17:45:50.999Z,79.87
2023-01-11T17:48:20.448Z,79.96
2023-01-11T17:50:54.544Z,79.75
2023-01-11T17:53:32.460Z,79.67
2023-01-11T17:56:05.247Z,79.74
2023-01-11T17:58:34.307Z,78.90
2023-01-11T18:01:04.011Z,79.38
2023-01-11T18:03:38.800Z,79.20
2023-01-11T18:06:41.518Z,80.09
2023-01-11T18:09:22.166Z,79.48
2023-01-11T18:11:51.404Z,79.98
2023-01-11T18:14:34.178Z,79.93
2023-01-11T18:17:26.024Z,79.87
2023-01-11T18:19:53.984Z,80.28
2023-01-11T18:22:32.078Z,80.26
2023-01-11T18:25:04.258Z,80.80
2023-01-11T18:27:35.367Z,80.59
2023-01-11T18:30:08.749Z,80.10
2023-01-11T18:32:43.044Z,80.22
2023-01-11T18:35:19.865Z,79.79
2023-01-11T18:37:48.312Z,80.12
2023-01-11T18:40:17.614Z,79.19
2023-01-11T18:42:51.207Z,78.94
2023-01-11T18:45:18.743Z,79.32
2023-01-11T18:47:46.351Z,79.43
2023-01-11T18:50:13.681Z,79.26
2023-01-11T18:52:40.830Z,78.55
2023-01-11T18:55:11.365Z,79.17
2023-01-11T18:57:37.987Z,78.86
2023-01-11T19:00:05.637Z,78.98
2023-01-11T19:02:45.720Z,79.08
2023-01-11T19:05:14.506Z,79.24
2023-01-11T19:07:41.631Z,79.01
2023-01-11T19:10:09.528Z,79.01
2023-01-11T19:12:36.532Z,79.08
2023-01-11T19:15:03.325Z,78.46
2023-01-11T19:17:32.079Z,77.99
2023-01-11T19:19:59.151Z,77.78
2023-01-11T19:22:26.805Z,77.49
2023-01-11T19:24:55.126Z,76.88
2023-01-11T19:27:23.737Z,77.36
2023-01-11T19:29:53.960Z,77.05
2023-01-11T19:32:25.287Z,77.09
2023-01-11T19:34:59.001Z,76.97
2023-01-11T19:37:30.711Z,76.78
2023-01-11T19:39:57.872Z,76.72
2023-01-11T19:42:24.742Z,76.55
2023-01-11T19:44:51.607Z,77.02
2023-01-11T19:47:18.799Z,77.54
2023-01-11T19:49:46.156Z,77.98
2023-01-11T19:52:18.900Z,78.64
2023-01-11T19:54:46.752Z,79.37
2023-01-11T19:57:18.879Z,80.88
2023-01-11T19:59:49.746Z,80.99
2023-01-11T20:02:19.070Z,81.09
2023-01-11T20:04:46.438Z,81.92
2023-01-11T20:07:15.278Z,83.02
2023-01-11T20:09:43.116Z,83.58
2023-01-11T20:12:12.110Z,84.77
2023-01-11T20:14:40.564Z,84.54
2023-01-11T20:17:07.877Z,84.37
2023-01-11T20:19:34.989Z,84.97
2023-01-11T20:22:01.812Z,85.59
2023-01-11T20:24:29.704Z,86.46
2023-01-11T20:26:59.347Z,86.16
2023-01-11T20:29:26.625Z,87.43
2023-01-11T20:31:53.855Z,87.90
2023-01-11T20:34:21.127Z,88.02
2023-01-11T20:36:48.907Z,88.46
2023-01-11T20:39:17.420Z,88.27
2023-01-11T20:41:47.271Z,88.55
2023-01-11T20:44:17.984Z,88.71
2023-01-11T20:46:47.803Z,88.90
2023-01-11T20:49:15.488Z,89.20
2023-01-11T20:51:42.843Z,88.88
2023-01-11T20:54:10.255Z,88.66
2023-01-11T20:56:38.553Z,88.52
2023-01-11T20:59:07.635Z,88.13
2023-01-11T21:01:36.293Z,88.18
2023-01-11T21:04:08.954Z,87.04
2023-01-11T21:06:38.499Z,86.79
2023-01-11T21:09:07.204Z,86.46
2023-01-11T21:11:34.442Z,86.04
2023-01-11T21:14:04.093Z,85.99
2023-01-11T21:16:31.492Z,86.80
2023-01-11T21:19:00.802Z,86.95
2023-01-11T21:21:29.844Z,87.08
2023-01-11T21:23:59.635Z,87.25
2023-01-11T21:26:27.644Z,87.34
2023-01-11T21:28:59.982Z,87.64
2023-01-11T21:31:28.600Z,87.42
2023-01-11T21:33:55.862Z,87.16
2023-01-11T21:36:27.765Z,86.99
2023-01-11T21:38:56.693Z,87.35
2023-01-11T21:41:44.599Z,86.75
2023-01-11T21:44:12.923Z,86.31
2023-01-11T21:46:40.501Z,86.56
2023-01-11T21:49:07.414Z,86.25
2023-01-11T21:51:34.568Z,86.37
2023-01-11T21:54:06.017Z,86.41
2023-01-11T21:56:33.355Z,86.68
2023-01-11T21:59:00.375Z,86.55
2023-01-11T22:01:27.793Z,86.31
2023-01-11T22:03:54.661Z,85.78
2023-01-11T22:06:21.487Z,85.70
2023-01-11T22:08:48.375Z,85.65
2023-01-11T22:11:16.956Z,85.25
2023-01-11T22:13:43.855Z,85.42
2023-01-11T22:16:13.228Z,85.13
2023-01-11T22:18:41.204Z,85.37
2023-01-11T22:21:16.959Z,84.99
2023-01-11T22:23:46.064Z,84.86
2023-01-11T22:26:16.243Z,84.25
2023-01-11T22:29:02.203Z,83.87
2023-01-11T22:31:30.037Z,84.04
2023-01-11T22:33:57.649Z,84.53
2023-01-11T22:36:25.649Z,84.08
2023-01-11T22:38:52.820Z,84.21
2023-01-11T22:41:20.187Z,84.22
2023-01-11T22:43:47.268Z,83.59
2023-01-11T22:46:16.846Z,83.53
2023-01-11T22:48:44.629Z,83.43
2023-01-11T22:51:11.814Z,84.00
2023-01-11T22:53:43.512Z,84.02
2023-01-11T22:56:11.395Z,84.03
2023-01-11T22:58:38.509Z,84.25
2023-01-11T23:01:11.754Z,84.90
2023-01-11T23:03:39.092Z,84.88
2023-01-11T23:06:06.784Z,85.36
2023-01-11T23:08:41.658Z,85.24
2023-01-11T23:11:36.177Z,85.56
2023-01-11T23:14:04.987Z,85.85
2023-01-11T23:16:31.917Z,85.85
2023-01-11T23:18:58.940Z,86.15
2023-01-11T23:21:25.622Z,86.22
2023-01-11T23:23:53.288Z,86.20
2023-01-11T23:26:21.037Z,86.59
2023-01-11T23:28:49.991Z,86.68
2023-01-11T23:31:19.925Z,86.02
2023-01-11T23:33:52.076Z,85.86
2023-01-11T23:36:20.565Z,85.26
2023-01-11T23:38:47.900Z,84.93
2023-01-11T23:41:36.478Z,85.32
2023-01-11T23:44:09.216Z,85.72
2023-01-11T23:46:55.970Z,85.39
2023-01-11T23:49:26.973Z,85.04
2023-01-11T23:51:55.039Z,85.50
2023-01-11T23:54:22.532Z,85.04
2023-01-11T23:56:49.412Z,85.17
2023-01-11T23:59:16.120Z,85.33
